createdAt,value
2019-03-29T00:00:06.122Z,13.63
2019-03-29T00:02:39.608Z,13.93
2019-03-29T00:05:11.330Z,13.43
2019-03-29T00:07:44.487Z,13.93
2019-03-29T00:10:15.712Z,15.17
2019-03-29T00:12:52.537Z,15.53
2019-03-29T00:15:24.221Z,15.10
2019-03-29T00:17:55.519Z,16.80
2019-03-29T00:20:26.987Z,15.10
2019-03-29T00:22:58.877Z,16.03
2019-03-29T00:25:33.015Z,14.97
2019-03-29T00:28:07.296Z,17.27
2019-03-29T00:30:39.854Z,16.17
2019-03-29T00:33:11.829Z,14.50
2019-03-29T00:35:44.452Z,12.10
2019-03-29T00:38:16.433Z,13.97
2019-03-29T00:40:48.761Z,13.83
2019-03-29T00:43:20.324Z,14.13
2019-03-29T00:45:52.321Z,12.87
2019-03-29T00:48:24.184Z,15.67
2019-03-29T00:50:59.015Z,14.73
2019-03-29T00:53:31.417Z,15.80
2019-03-29T00:56:04.141Z,13.27
2019-03-29T00:58:35.585Z,11.43
2019-03-29T01:01:07.107Z,14.17
2019-03-29T01:03:39.451Z,11.00
2019-03-29T01:06:10.761Z,15.30
2019-03-29T01:08:43.008Z,11.93
2019-03-29T01:11:14.911Z,12.30
2019-03-29T01:13:46.360Z,13.53
2019-03-29T01:16:17.619Z,14.40
2019-03-29T01:18:48.887Z,13.10
2019-03-29T01:21:21.760Z,14.27
2019-03-29T01:23:53.178Z,12.70
2019-03-29T01:26:24.794Z,13.03
2019-03-29T01:29:05.720Z,14.50
2019-03-29T01:31:37.819Z,13.67
2019-03-29T01:34:11.961Z,11.93
2019-03-29T01:36:46.008Z,15.03
2019-03-29T01:39:17.504Z,12.20
2019-03-29T01:42:03.674Z,16.87
2019-03-29T01:44:38.003Z,11.83
2019-03-29T01:47:11.048Z,9.53
2019-03-29T01:49:46.396Z,13.40
2019-03-29T01:52:19.314Z,11.50
2019-03-29T01:54:52.928Z,12.23
2019-03-29T01:57:25.121Z,11.27
2019-03-29T01:59:58.534Z,11.53
2019-03-29T02:02:31.121Z,14.10
2019-03-29T02:05:03.260Z,14.10
2019-03-29T02:07:35.321Z,15.67
2019-03-29T02:10:10.279Z,13.27
2019-03-29T02:12:43.030Z,15.20
2019-03-29T02:15:22.011Z,16.13
2019-03-29T02:17:53.324Z,14.23
2019-03-29T02:20:28.007Z,15.77
2019-03-29T02:23:01.857Z,13.43
2019-03-29T02:25:35.772Z,14.40
2019-03-29T02:28:09.801Z,15.73
2019-03-29T02:30:51.558Z,14.07
2019-03-29T02:33:27.506Z,16.03
2019-03-29T02:36:02.907Z,13.73
2019-03-29T02:38:54.089Z,14.27
2019-03-29T02:41:14.512Z,15.53
2019-03-29T02:43:47.236Z,14.50
2019-03-29T02:46:21.384Z,20.60
2019-03-29T02:48:56.541Z,16.17
2019-03-29T02:51:32.890Z,15.67
2019-03-29T02:54:04.524Z,16.40
2019-03-29T02:56:42.331Z,17.37
2019-03-29T02:59:17.259Z,16.80
2019-03-29T03:01:50.682Z,20.87
2019-03-29T03:04:22.410Z,22.20
2019-03-29T03:06:54.464Z,15.50
2019-03-29T03:09:27.619Z,20.87
2019-03-29T03:12:00.111Z,18.13
2019-03-29T03:14:32.750Z,19.03
2019-03-29T03:17:05.051Z,19.23
2019-03-29T03:19:36.346Z,23.83
2019-03-29T03:22:09.598Z,21.47
2019-03-29T03:24:40.843Z,20.37
2019-03-29T03:27:12.106Z,26.80
2019-03-29T03:29:47.560Z,23.03
2019-03-29T03:32:18.650Z,23.67
2019-03-29T03:34:51.474Z,28.20
2019-03-29T03:37:22.954Z,24.13
2019-03-29T03:39:58.888Z,22.30
2019-03-29T03:42:30.693Z,21.67
2019-03-29T03:45:02.766Z,22.63
2019-03-29T03:47:35.750Z,22.40
2019-03-29T03:50:08.073Z,21.23
2019-03-29T03:52:39.429Z,22.80
2019-03-29T03:55:11.192Z,19.90
2019-03-29T03:57:44.252Z,20.17
2019-03-29T04:00:18.909Z,22.70
2019-03-29T04:02:50.206Z,18.57
2019-03-29T04:05:25.242Z,21.43
2019-03-29T04:08:02.267Z,17.37
2019-03-29T04:10:33.959Z,17.17
2019-03-29T04:13:06.765Z,20.37
2019-03-29T04:15:39.576Z,19.77
2019-03-29T04:18:15.516Z,22.53
2019-03-29T04:20:45.049Z,25.73
2019-03-29T04:23:16.301Z,22.27
2019-03-29T04:25:48.547Z,22.37
2019-03-29T04:28:21.569Z,20.50
2019-03-29T04:30:54.284Z,22.20
2019-03-29T04:33:27.174Z,21.23
2019-03-29T04:36:01.888Z,20.00
2019-03-29T04:38:38.880Z,21.33
2019-03-29T04:41:10.156Z,20.60
2019-03-29T04:43:43.875Z,17.37
2019-03-29T04:46:15.905Z,23.53
2019-03-29T04:48:47.142Z,17.87
2019-03-29T04:51:19.714Z,23.53
2019-03-29T04:53:51.098Z,22.87
2019-03-29T04:56:22.382Z,21.50
2019-03-29T04:58:54.639Z,22.50
2019-03-29T05:01:26.372Z,23.67
2019-03-29T05:03:57.923Z,23.57
2019-03-29T05:06:31.613Z,25.27
2019-03-29T05:09:02.958Z,27.00
2019-03-29T05:11:34.225Z,25.93
2019-03-29T05:14:07.059Z,22.77
2019-03-29T05:16:40.380Z,21.33
2019-03-29T05:19:12.450Z,24.23
2019-03-29T05:21:50.171Z,23.00
2019-03-29T05:24:22.820Z,20.63
2019-03-29T05:26:54.904Z,23.43
2019-03-29T05:29:26.251Z,30.13
2019-03-29T05:31:57.629Z,30.87
2019-03-29T05:34:31.049Z,28.60
2019-03-29T05:37:09.658Z,29.27
2019-03-29T05:39:41.129Z,34.07
2019-03-29T05:42:12.618Z,32.53
2019-03-29T05:44:45.646Z,35.43
2019-03-29T05:47:17.288Z,32.70
2019-03-29T05:50:04.726Z,33.03
2019-03-29T05:52:37.344Z,33.70
2019-03-29T05:55:11.190Z,35.83
2019-03-29T05:57:43.746Z,31.20
2019-03-29T06:00:18.312Z,30.40
2019-03-29T06:02:50.398Z,31.87
2019-03-29T06:05:22.906Z,26.70
2019-03-29T06:07:54.917Z,29.50
2019-03-29T06:10:26.151Z,25.23
2019-03-29T06:13:00.007Z,26.17
2019-03-29T06:15:32.372Z,25.03
2019-03-29T06:18:06.227Z,24.30
2019-03-29T06:20:39.364Z,21.70
2019-03-29T06:23:11.365Z,22.80
2019-03-29T06:25:45.215Z,20.57
2019-03-29T06:28:16.566Z,20.43
2019-03-29T06:30:49.499Z,18.63
2019-03-29T06:33:22.147Z,18.70
2019-03-29T06:35:56.620Z,18.50
2019-03-29T06:38:32.686Z,16.20
2019-03-29T06:41:04.782Z,13.90
2019-03-29T06:43:36.082Z,15.57
2019-03-29T06:46:07.332Z,15.90
2019-03-29T06:48:39.118Z,14.87
2019-03-29T06:51:12.401Z,13.37
2019-03-29T06:53:45.254Z,12.77
2019-03-29T06:56:16.505Z,15.47
2019-03-29T06:58:47.974Z,13.73
2019-03-29T07:01:20.232Z,14.73
2019-03-29T07:03:53.332Z,16.57
2019-03-29T07:06:24.825Z,14.83
2019-03-29T07:08:56.645Z,14.37
2019-03-29T07:11:27.951Z,13.33
2019-03-29T07:13:59.529Z,14.97
2019-03-29T07:16:31.539Z,15.93
2019-03-29T07:19:05.005Z,14.93
2019-03-29T07:21:35.891Z,14.97
2019-03-29T07:24:07.171Z,18.03
2019-03-29T07:26:39.710Z,16.10
2019-03-29T07:29:11.601Z,18.27
2019-03-29T07:31:44.059Z,14.70
2019-03-29T07:34:15.518Z,20.60
2019-03-29T07:36:48.217Z,16.43
2019-03-29T07:39:20.821Z,18.60
2019-03-29T07:41:52.398Z,17.53
2019-03-29T07:44:25.364Z,17.53
2019-03-29T07:46:57.716Z,17.57
2019-03-29T07:49:31.009Z,17.87
2019-03-29T07:52:02.996Z,19.83
2019-03-29T07:54:34.339Z,19.73
2019-03-29T07:57:05.610Z,17.67
2019-03-29T07:59:38.236Z,18.60
2019-03-29T08:02:10.459Z,20.60
2019-03-29T08:04:42.026Z,19.17
2019-03-29T08:07:26.281Z,19.53
2019-03-29T08:09:46.933Z,17.33
2019-03-29T08:12:19.280Z,17.63
2019-03-29T08:14:51.480Z,16.83
2019-03-29T08:17:23.921Z,18.63
2019-03-29T08:20:24.490Z,17.23
2019-03-29T08:22:30.095Z,17.37
2019-03-29T08:25:03.254Z,19.17
2019-03-29T08:27:34.557Z,19.20
2019-03-29T08:30:07.051Z,20.47
2019-03-29T08:32:38.367Z,18.63
2019-03-29T08:35:09.859Z,18.17
2019-03-29T08:37:41.573Z,18.00
2019-03-29T08:40:12.955Z,17.23
2019-03-29T08:42:44.380Z,18.97
2019-03-29T08:45:15.738Z,19.70
2019-03-29T08:47:47.000Z,18.67
2019-03-29T08:50:19.610Z,17.53
2019-03-29T08:52:52.457Z,16.77
2019-03-29T08:55:24.718Z,16.40
2019-03-29T08:57:57.375Z,19.77
2019-03-29T09:00:37.457Z,18.83
2019-03-29T09:03:09.306Z,14.60
2019-03-29T09:05:42.725Z,15.37
2019-03-29T09:08:14.601Z,15.77
2019-03-29T09:10:47.153Z,16.60
2019-03-29T09:13:19.393Z,14.60
2019-03-29T09:15:53.681Z,14.30
2019-03-29T09:18:26.138Z,16.23
2019-03-29T09:20:59.560Z,14.60
2019-03-29T09:23:32.541Z,16.00
2019-03-29T09:26:04.022Z,16.63
2019-03-29T09:28:37.957Z,15.23
2019-03-29T09:31:09.803Z,15.13
2019-03-29T09:33:41.599Z,16.00
2019-03-29T09:36:14.327Z,17.07
2019-03-29T09:38:45.594Z,15.93
2019-03-29T09:41:16.914Z,14.13
2019-03-29T09:43:48.414Z,14.43
2019-03-29T09:46:20.723Z,15.23
2019-03-29T09:48:51.990Z,14.27
2019-03-29T09:51:24.483Z,11.93
2019-03-29T09:53:57.918Z,15.00
2019-03-29T09:56:38.718Z,14.70
2019-03-29T09:59:04.362Z,14.03
2019-03-29T10:01:36.574Z,11.30
2019-03-29T10:04:08.147Z,13.23
2019-03-29T10:06:39.479Z,12.53
2019-03-29T10:09:10.719Z,13.83
2019-03-29T10:11:42.034Z,12.27
2019-03-29T10:14:15.001Z,14.27
2019-03-29T10:16:47.762Z,14.43
2019-03-29T10:19:20.325Z,13.53
2019-03-29T10:21:52.341Z,13.60
2019-03-29T10:24:25.797Z,13.90
2019-03-29T10:26:58.576Z,12.40
2019-03-29T10:29:29.822Z,13.20
2019-03-29T10:32:05.499Z,14.20
2019-03-29T10:34:37.595Z,13.17
2019-03-29T10:37:09.509Z,10.97
2019-03-29T10:39:40.732Z,12.43
2019-03-29T10:42:13.875Z,14.97
2019-03-29T10:44:49.463Z,12.53
2019-03-29T10:47:21.331Z,12.27
2019-03-29T10:49:57.957Z,12.10
2019-03-29T10:52:29.349Z,12.03
2019-03-29T10:55:00.619Z,11.87
2019-03-29T10:57:31.925Z,12.77
2019-03-29T11:00:04.827Z,12.57
2019-03-29T11:02:37.913Z,12.13
2019-03-29T11:05:09.925Z,10.87
2019-03-29T11:07:43.067Z,14.63
2019-03-29T11:10:29.992Z,12.83
2019-03-29T11:13:12.743Z,12.13
2019-03-29T11:15:39.783Z,11.23
2019-03-29T11:18:11.805Z,13.43
2019-03-29T11:20:43.100Z,13.23
2019-03-29T11:23:14.355Z,10.83
2019-03-29T11:25:48.761Z,12.07
2019-03-29T11:28:21.913Z,13.70
2019-03-29T11:30:53.560Z,14.10
2019-03-29T11:33:26.554Z,12.50
2019-03-29T11:35:59.701Z,12.17
2019-03-29T11:38:32.427Z,11.97
2019-03-29T11:41:03.682Z,12.07
2019-03-29T11:43:37.291Z,11.20
2019-03-29T11:46:10.281Z,12.93
2019-03-29T11:48:42.076Z,14.33
2019-03-29T11:51:19.658Z,12.73
2019-03-29T11:53:50.719Z,12.97
2019-03-29T11:56:21.566Z,13.20
2019-03-29T11:58:52.804Z,15.57
2019-03-29T12:01:25.430Z,14.83
2019-03-29T12:03:57.753Z,12.97
2019-03-29T12:06:30.222Z,14.73
2019-03-29T12:09:02.079Z,12.43
2019-03-29T12:11:34.029Z,13.37
2019-03-29T12:14:06.924Z,16.67
2019-03-29T12:16:38.189Z,12.33
2019-03-29T12:19:11.226Z,15.17
2019-03-29T12:21:44.314Z,15.07
2019-03-29T12:24:16.145Z,13.30
2019-03-29T12:26:48.337Z,13.07
2019-03-29T12:29:21.397Z,13.13
2019-03-29T12:31:52.678Z,12.67
2019-03-29T12:34:25.488Z,13.27
2019-03-29T12:36:56.768Z,12.70
2019-03-29T12:39:28.229Z,13.53
2019-03-29T12:42:01.219Z,12.97
2019-03-29T12:44:39.549Z,15.27
2019-03-29T12:47:11.187Z,14.17
2019-03-29T12:49:48.982Z,14.47
2019-03-29T12:52:20.393Z,16.73
2019-03-29T12:54:51.624Z,14.50
2019-03-29T12:57:24.734Z,14.10
2019-03-29T12:59:58.643Z,15.50
2019-03-29T13:02:29.997Z,14.13
2019-03-29T13:05:01.289Z,15.43
2019-03-29T13:07:32.603Z,15.03
2019-03-29T13:10:05.650Z,14.70
2019-03-29T13:12:39.217Z,15.90
2019-03-29T13:15:12.809Z,14.33
2019-03-29T13:17:44.240Z,15.57
2019-03-29T13:20:16.253Z,18.27
2019-03-29T13:22:49.121Z,14.70
2019-03-29T13:25:22.931Z,16.23
2019-03-29T13:27:58.943Z,14.97
2019-03-29T13:30:27.395Z,15.77
2019-03-29T13:32:58.690Z,16.33
2019-03-29T13:35:33.373Z,15.70
2019-03-29T13:38:07.275Z,19.73
2019-03-29T13:40:40.510Z,15.50
2019-03-29T13:43:11.766Z,17.50
2019-03-29T13:45:43.068Z,18.23
2019-03-29T13:48:16.764Z,16.53
2019-03-29T13:50:50.517Z,16.97
2019-03-29T13:53:28.661Z,17.07
2019-03-29T13:55:59.984Z,17.70
2019-03-29T13:58:31.468Z,16.67
2019-03-29T14:01:07.211Z,17.57
2019-03-29T14:03:39.613Z,18.10
2019-03-29T14:06:11.310Z,18.27
2019-03-29T14:08:42.551Z,17.13
2019-03-29T14:11:14.635Z,16.63
2019-03-29T14:13:48.471Z,16.90
2019-03-29T14:16:19.850Z,18.40
2019-03-29T14:18:52.692Z,17.93
2019-03-29T14:21:27.586Z,17.63
2019-03-29T14:24:00.862Z,19.23
2019-03-29T14:26:35.465Z,18.40
2019-03-29T14:29:06.726Z,18.13
2019-03-29T14:31:40.367Z,19.13
2019-03-29T14:34:13.488Z,18.67
2019-03-29T14:36:44.827Z,17.77
2019-03-29T14:39:16.086Z,20.53
2019-03-29T14:41:50.887Z,19.60
2019-03-29T14:44:24.040Z,21.17
2019-03-29T14:47:02.352Z,19.03
2019-03-29T14:49:33.556Z,18.90
2019-03-29T14:52:05.364Z,17.93
2019-03-29T14:54:39.086Z,19.20
2019-03-29T14:57:12.459Z,19.03
2019-03-29T14:59:43.709Z,19.93
2019-03-29T15:02:17.299Z,20.80
2019-03-29T15:04:48.138Z,19.40
2019-03-29T15:07:23.311Z,19.27
2019-03-29T15:09:57.707Z,19.93
2019-03-29T15:12:30.248Z,21.07
2019-03-29T15:15:10.272Z,20.80
2019-03-29T15:17:43.799Z,20.37
2019-03-29T15:20:16.415Z,21.20
2019-03-29T15:22:49.114Z,21.43
2019-03-29T15:25:22.635Z,22.83
2019-03-29T15:27:54.083Z,20.87
2019-03-29T15:30:25.328Z,20.13
2019-03-29T15:32:56.596Z,20.57
2019-03-29T15:35:27.892Z,20.07
2019-03-29T15:37:59.170Z,19.47
2019-03-29T15:40:30.405Z,20.10
2019-03-29T15:43:01.710Z,21.27
2019-03-29T15:45:32.956Z,21.67
2019-03-29T15:48:04.298Z,21.43
2019-03-29T15:50:35.641Z,20.63
2019-03-29T15:53:07.016Z,21.03
2019-03-29T15:55:38.366Z,20.47
2019-03-29T15:58:09.636Z,20.43
2019-03-29T16:00:40.898Z,20.30
2019-03-29T16:03:13.448Z,21.30
2019-03-29T16:05:48.486Z,22.53
2019-03-29T16:08:20.843Z,20.33
2019-03-29T16:10:52.268Z,22.40
2019-03-29T16:13:25.071Z,21.70
2019-03-29T16:15:56.943Z,21.27
2019-03-29T16:18:31.480Z,21.90
2019-03-29T16:21:02.715Z,21.37
2019-03-29T16:23:34.022Z,20.27
2019-03-29T16:26:08.346Z,19.80
2019-03-29T16:28:40.316Z,19.60
2019-03-29T16:31:14.621Z,19.83
2019-03-29T16:33:45.934Z,19.13
2019-03-29T16:36:17.911Z,19.20
2019-03-29T16:38:49.845Z,20.57
2019-03-29T16:41:29.142Z,21.10
2019-03-29T16:44:00.492Z,19.53
2019-03-29T16:46:33.987Z,20.40
2019-03-29T16:49:07.592Z,20.10
2019-03-29T16:51:39.663Z,19.80
2019-03-29T16:54:10.989Z,21.10
2019-03-29T16:56:42.995Z,20.73
2019-03-29T16:59:17.055Z,20.30
2019-03-29T17:01:51.130Z,22.00
2019-03-29T17:04:22.327Z,20.97
2019-03-29T17:06:54.137Z,20.73
2019-03-29T17:09:26.247Z,22.70
2019-03-29T17:11:59.307Z,21.80
2019-03-29T17:14:30.654Z,23.57
2019-03-29T17:17:02.594Z,20.90
2019-03-29T17:19:34.387Z,21.57
2019-03-29T17:22:06.194Z,27.30
2019-03-29T17:24:37.518Z,21.57
2019-03-29T17:27:08.809Z,21.83
2019-03-29T17:29:40.084Z,22.37
2019-03-29T17:32:11.923Z,23.30
2019-03-29T17:34:43.581Z,20.27
2019-03-29T17:37:16.612Z,22.73
2019-03-29T17:39:47.938Z,23.07
2019-03-29T17:42:19.327Z,24.87
2019-03-29T17:44:52.245Z,21.87
2019-03-29T17:47:23.510Z,21.97
2019-03-29T17:49:54.842Z,23.13
2019-03-29T17:52:26.618Z,21.33
2019-03-29T17:54:58.524Z,22.50
2019-03-29T17:57:30.433Z,21.73
2019-03-29T18:00:03.907Z,23.13
2019-03-29T18:02:36.085Z,24.93
2019-03-29T18:05:09.382Z,23.17
2019-03-29T18:07:42.073Z,23.93
2019-03-29T18:10:14.088Z,22.57
2019-03-29T18:12:45.838Z,23.63
2019-03-29T18:15:17.797Z,20.80
2019-03-29T18:17:49.189Z,23.50
2019-03-29T18:20:21.357Z,25.10
2019-03-29T18:23:00.145Z,21.50
2019-03-29T18:25:32.202Z,23.23
2019-03-29T18:28:03.509Z,23.23
2019-03-29T18:30:40.838Z,22.63
2019-03-29T18:33:12.409Z,23.10
2019-03-29T18:35:43.658Z,25.30
2019-03-29T18:38:15.829Z,23.63
2019-03-29T18:40:47.143Z,24.07
2019-03-29T18:43:18.437Z,23.57
2019-03-29T18:45:49.707Z,22.10
2019-03-29T18:48:20.965Z,23.43
2019-03-29T18:50:52.218Z,24.20
2019-03-29T18:53:23.728Z,22.97
2019-03-29T18:55:56.049Z,24.07
2019-03-29T18:58:27.293Z,25.30
2019-03-29T19:00:59.043Z,25.47
2019-03-29T19:03:31.799Z,27.07
2019-03-29T19:06:03.291Z,26.10
2019-03-29T19:08:35.145Z,24.77
2019-03-29T19:11:07.297Z,23.57
2019-03-29T19:13:39.942Z,24.70
2019-03-29T19:16:15.229Z,24.30
2019-03-29T19:18:46.481Z,26.50
2019-03-29T19:21:18.345Z,27.80
2019-03-29T19:23:51.434Z,26.07
2019-03-29T19:26:23.226Z,26.53
2019-03-29T19:28:55.989Z,25.87
2019-03-29T19:31:27.268Z,24.33
2019-03-29T19:34:00.167Z,27.83
2019-03-29T19:36:32.590Z,25.40
2019-03-29T19:39:06.099Z,28.27
2019-03-29T19:41:37.370Z,27.63
2019-03-29T19:44:08.615Z,25.50
2019-03-29T19:46:39.871Z,25.53
2019-03-29T19:49:11.110Z,27.87
2019-03-29T19:51:42.354Z,30.97
2019-03-29T19:54:13.927Z,27.40
2019-03-29T19:56:45.316Z,32.50
2019-03-29T19:59:16.626Z,28.90
2019-03-29T20:01:47.928Z,25.80
2019-03-29T20:04:19.265Z,26.50
2019-03-29T20:06:50.499Z,29.07
2019-03-29T20:09:23.267Z,26.70
2019-03-29T20:11:54.548Z,30.53
2019-03-29T20:14:25.852Z,29.97
2019-03-29T20:16:57.104Z,32.10
2019-03-29T20:19:28.413Z,36.80
2019-03-29T20:22:00.530Z,37.53
2019-03-29T20:24:31.898Z,38.90
2019-03-29T20:27:03.334Z,39.20
2019-03-29T20:29:35.472Z,32.97
2019-03-29T20:32:07.815Z,31.63
2019-03-29T20:34:39.907Z,31.87
2019-03-29T20:37:12.226Z,31.70
2019-03-29T20:39:45.203Z,30.70
2019-03-29T20:42:17.283Z,32.87
2019-03-29T20:44:48.978Z,29.90
2019-03-29T20:47:21.781Z,30.13
2019-03-29T20:49:53.089Z,31.23
2019-03-29T20:52:26.749Z,28.17
2019-03-29T20:54:59.190Z,27.70
2019-03-29T20:57:32.606Z,29.77
2019-03-29T21:00:07.029Z,27.87
2019-03-29T21:02:38.346Z,31.57
2019-03-29T21:05:10.339Z,30.80
2019-03-29T21:07:41.676Z,30.83
2019-03-29T21:10:13.181Z,28.47
2019-03-29T21:12:48.431Z,27.00
2019-03-29T21:15:21.281Z,28.93
2019-03-29T21:17:57.884Z,27.03
2019-03-29T21:20:28.974Z,28.73
2019-03-29T21:23:00.314Z,29.43
2019-03-29T21:25:31.687Z,27.93
2019-03-29T21:28:03.157Z,30.17
2019-03-29T21:30:34.560Z,31.27
2019-03-29T21:33:07.876Z,28.07
2019-03-29T21:35:39.147Z,28.63
2019-03-29T21:38:12.866Z,29.93
2019-03-29T21:40:44.217Z,28.27
2019-03-29T21:43:16.878Z,25.60
2019-03-29T21:45:49.913Z,26.60
2019-03-29T21:48:28.664Z,28.50
2019-03-29T21:50:54.307Z,27.07
2019-03-29T21:53:25.854Z,29.13
2019-03-29T21:55:57.145Z,30.10
2019-03-29T21:58:29.046Z,29.77
2019-03-29T22:01:01.211Z,28.67
2019-03-29T22:03:32.559Z,30.50
2019-03-29T22:06:04.771Z,29.00
2019-03-29T22:08:36.058Z,27.77
2019-03-29T22:11:08.433Z,26.80
2019-03-29T22:13:44.153Z,29.73
2019-03-29T22:16:15.843Z,30.47
2019-03-29T22:18:47.304Z,31.80
2019-03-29T22:21:18.697Z,32.37
2019-03-29T22:23:52.621Z,35.33
2019-03-29T22:26:23.939Z,36.87
2019-03-29T22:28:55.242Z,39.53
2019-03-29T22:31:29.152Z,43.23
2019-03-29T22:34:09.339Z,33.07
2019-03-29T22:36:40.713Z,26.23
2019-03-29T22:39:12.309Z,31.70
2019-03-29T22:41:43.575Z,35.03
2019-03-29T22:44:14.839Z,35.53
2019-03-29T22:46:46.347Z,35.63
2019-03-29T22:49:17.644Z,35.23
2019-03-29T22:51:49.667Z,33.27
2019-03-29T22:54:21.500Z,32.10
2019-03-29T22:56:54.380Z,33.90
2019-03-29T22:59:29.291Z,31.37
2019-03-29T23:02:01.399Z,30.83
2019-03-29T23:04:34.081Z,29.30
2019-03-29T23:07:07.077Z,31.17
2019-03-29T23:09:39.364Z,27.23
2019-03-29T23:12:13.004Z,30.07
2019-03-29T23:14:44.871Z,33.27
2019-03-29T23:17:17.461Z,30.30
2019-03-29T23:19:50.195Z,30.10
2019-03-29T23:22:23.320Z,28.33
2019-03-29T23:24:54.683Z,31.00
2019-03-29T23:27:28.321Z,28.80
2019-03-29T23:29:59.960Z,27.80
2019-03-29T23:32:32.522Z,26.87
2019-03-29T23:35:04.987Z,27.40
2019-03-29T23:37:36.586Z,26.97
2019-03-29T23:40:09.760Z,30.70
2019-03-29T23:42:42.689Z,27.97
2019-03-29T23:45:16.215Z,27.07
2019-03-29T23:47:47.976Z,27.93
2019-03-29T23:50:20.837Z,27.80
2019-03-29T23:52:52.101Z,27.00
2019-03-29T23:55:23.427Z,30.00
2019-03-29T23:57:56.892Z,28.10
